Ashland, IL

1:45 AM CDT on September 02, 2014 (GMT -0500)
Hynes Farm | Change Station
CLOSE
Current Station
Personal Weather Station
Location: Pleasant Plains, IL
Elevation: 565 ft
Nearby Weather Stations

Elev 565 ft 39.87 °N, 89.83 °W | Updated 59 seconds ago

Rain
Rain
69.8 °F
Feels Like 69.8 °F
N
4.0
Wind Variable Wind from South
Gusts 7.0 mph

Today
High -- | Low -- °F
--% Chance of Precip.
Yesterday
High -- | Low -- °F
Precip. -- in
6:29 AM 7:29 PM
Waxing Crescent, 48% visible
Pressure 29.88 in
Visibility 7.0 miles
Clouds Scattered Clouds 400 ft
Scattered Clouds 2400 ft
Scattered Clouds 3600 ft
Dew Point 69 °F
Humidity 97%
Rainfall 0.05 in
Snow Depth Not available.
UV 0 out of 12
Pollen 9.70 out of 12
Air Quality Not available.
Flu Activity Not available.
METAR KIJX 020635Z AUTO 16010KT 7SM VCTSRA SCT004 SCT024 SCT036 22/21 A2988 RMK AO2 LTG DSNT SE AND S P0005 T02210214

More Conditions Fewer Conditions

Pressure 29.88 in
Visibility 7.0 miles
Clouds Scattered Clouds 400 ft
Scattered Clouds 2400 ft
Scattered Clouds 3600 ft
Dew Point 69 °F
Humidity 97%
Rainfall 0.05 in
Snow Depth Not available.
UV 0 out of 12
Pollen 9.70 out of 12
Air Quality Not available.
Flu Activity Not available.
METAR KIJX 020635Z AUTO 16010KT 7SM VCTSRA SCT004 SCT024 SCT036 22/21 A2988 RMK AO2 LTG DSNT SE AND S P0005 T02210214

More Conditions Fewer Conditions

10-Day Weather Forecast

Almanac

Astronomy

Sep. 02, 2014 Rise Set
Actual Time 6:29 AM CDT 7:29 PM CDT
Civil Twilight 6:01 AM CDT 7:57 PM CDT
Nautical Twilight 5:28 AM CDT 8:30 PM CDT
Astronomical Twilight 4:54 AM CDT 9:04 PM CDT
Moon 2:12 PM CDT No Moon Set
Length of Visible Light 13h 56m
Length of Day
13h 00m
Tomorrow will be 2m 31s shorter.
Waxing Crescent, 48% of the Moon is Illuminated
Today
Waxing Crescent
Sep 2
First Quarter
Sep 8
Full
Sep 15
Last Quarter
Sep 24
New

Today's Extremes

State Highs State Lows

Community

WunderPhotos

Upload Photos

1,749,589 photos uploaded!

WunderBlogs® & News

Nearby

Snow Depth

Station Depth Elevation
No new snow has been reported.

Earthquake Activity

City Distance Mag. Time & Date
No recent earthquake activity has been reported nearby.
Minimum magnitude displayed is 2.5.

Coastal Water Temperatures

Place Temperature
No Stations Reporting

Nearby Weather Stations